createdAt,value
2023-01-20T00:00:44.641Z,82.84
2023-01-20T00:05:52.995Z,82.50
2023-01-20T00:10:54.428Z,82.72
2023-01-20T00:15:55.913Z,81.71
2023-01-20T00:21:01.371Z,82.34
2023-01-20T00:26:08.002Z,81.80
2023-01-20T00:31:17.728Z,82.22
2023-01-20T00:36:20.783Z,82.49
2023-01-20T00:41:22.242Z,83.46
2023-01-20T00:46:23.926Z,83.25
2023-01-20T00:51:25.525Z,83.33
2023-01-20T00:56:27.001Z,82.40
2023-01-20T01:01:28.467Z,83.15
2023-01-20T01:06:29.917Z,82.54
2023-01-20T01:11:31.335Z,82.99
2023-01-20T01:16:32.784Z,83.12
2023-01-20T01:21:34.217Z,84.01
2023-01-20T01:26:35.652Z,84.01
2023-01-20T01:31:37.149Z,83.47
2023-01-20T01:36:38.611Z,83.88
2023-01-20T01:41:40.038Z,83.61
2023-01-20T01:46:42.217Z,83.17
2023-01-20T01:52:10.551Z,83.76
2023-01-20T01:57:12.281Z,83.81
2023-01-20T02:02:13.867Z,83.32
2023-01-20T02:07:20.606Z,83.60
2023-01-20T02:12:22.766Z,83.79
2023-01-20T02:17:35.903Z,83.32
2023-01-20T02:22:52.182Z,82.49
2023-01-20T02:28:15.309Z,84.20
2023-01-20T02:33:27.444Z,84.14
2023-01-20T02:39:10.295Z,84.58
2023-01-20T02:44:36.328Z,84.27
2023-01-20T02:49:56.100Z,83.73
2023-01-20T02:55:03.412Z,83.64
2023-01-20T03:00:11.766Z,83.41
2023-01-20T03:05:19.339Z,82.74
2023-01-20T03:10:24.730Z,83.17
2023-01-20T03:15:35.396Z,82.52
2023-01-20T03:20:36.929Z,81.31
2023-01-20T03:25:40.161Z,82.93
2023-01-20T03:30:41.672Z,82.68
2023-01-20T03:35:43.943Z,83.46
2023-01-20T03:41:28.511Z,83.65
2023-01-20T03:46:42.052Z,83.16
2023-01-20T03:51:57.993Z,83.48
2023-01-20T03:57:16.559Z,82.75
2023-01-20T04:02:19.802Z,82.17
2023-01-20T04:07:24.605Z,82.24
2023-01-20T04:12:26.302Z,82.67
2023-01-20T04:17:31.147Z,83.23
2023-01-20T04:22:46.318Z,84.03
2023-01-20T04:27:47.753Z,83.51
2023-01-20T04:32:49.327Z,83.46
2023-01-20T04:37:50.772Z,83.88
2023-01-20T04:42:52.202Z,84.21
2023-01-20T04:47:53.635Z,84.66
2023-01-20T04:52:55.857Z,83.95
2023-01-20T04:57:57.301Z,83.88
2023-01-20T05:02:59.125Z,84.35
2023-01-20T05:08:00.852Z,83.43
2023-01-20T05:13:02.281Z,83.62
2023-01-20T05:18:03.709Z,84.23
2023-01-20T05:23:05.243Z,83.90
2023-01-20T05:28:07.099Z,83.69
2023-01-20T05:33:08.528Z,84.38
2023-01-20T05:38:09.973Z,84.33
2023-01-20T05:43:13.011Z,84.59
2023-01-20T05:48:14.597Z,84.84
2023-01-20T05:53:16.191Z,84.94
2023-01-20T05:58:17.617Z,84.93
2023-01-20T06:03:19.084Z,84.69
2023-01-20T06:08:20.509Z,84.20
2023-01-20T06:13:22.169Z,84.72
2023-01-20T06:18:24.430Z,84.51
2023-01-20T06:23:26.631Z,84.39
2023-01-20T06:28:28.752Z,84.54
2023-01-20T06:33:31.112Z,84.61
2023-01-20T06:38:35.254Z,84.54
2023-01-20T06:43:40.007Z,85.10
2023-01-20T06:48:42.400Z,84.23
2023-01-20T06:53:44.321Z,84.52
2023-01-20T06:58:45.972Z,85.05
2023-01-20T07:03:47.432Z,84.19
2023-01-20T07:08:48.882Z,84.90
2023-01-20T07:13:50.442Z,84.63
2023-01-20T07:18:52.968Z,85.42
2023-01-20T07:23:54.435Z,85.35
2023-01-20T07:28:59.881Z,85.34
2023-01-20T07:34:01.658Z,84.59
2023-01-20T07:39:03.193Z,83.91
2023-01-20T07:44:04.873Z,84.87
2023-01-20T07:49:06.323Z,84.85
2023-01-20T07:54:11.369Z,84.60
2023-01-20T07:59:12.795Z,84.21
2023-01-20T08:04:14.332Z,83.62
2023-01-20T08:09:16.036Z,83.39
2023-01-20T08:14:17.514Z,84.09
2023-01-20T08:19:19.405Z,84.66
2023-01-20T08:24:20.863Z,84.57
2023-01-20T08:29:22.847Z,84.65
2023-01-20T08:34:24.348Z,84.20
2023-01-20T08:39:25.960Z,84.32
2023-01-20T08:44:27.554Z,84.55
2023-01-20T08:49:29.731Z,84.15
2023-01-20T08:54:34.417Z,84.07
2023-01-20T08:59:35.846Z,84.32
2023-01-20T09:04:37.967Z,84.10
2023-01-20T09:09:39.441Z,84.08
2023-01-20T09:14:40.908Z,83.63
2023-01-20T09:19:42.319Z,83.26
2023-01-20T09:24:43.795Z,83.43
2023-01-20T09:29:45.238Z,83.32
2023-01-20T09:34:46.663Z,83.78
2023-01-20T09:40:06.872Z,84.18
2023-01-20T09:45:34.248Z,83.77
2023-01-20T09:51:11.601Z,83.58
2023-01-20T09:56:19.247Z,83.08
2023-01-20T10:01:36.427Z,82.92
2023-01-20T10:06:43.336Z,83.38
2023-01-20T10:11:47.383Z,82.81
2023-01-20T10:16:58.093Z,82.91
2023-01-20T10:22:19.509Z,82.93
2023-01-20T10:27:26.738Z,83.67
2023-01-20T10:32:36.268Z,83.89
2023-01-20T10:37:37.973Z,83.25
2023-01-20T10:42:39.401Z,83.47
2023-01-20T10:47:47.568Z,83.00
2023-01-20T10:53:03.924Z,83.04
2023-01-20T10:58:37.701Z,82.82
2023-01-20T11:03:42.818Z,82.70
2023-01-20T11:08:44.545Z,83.39
2023-01-20T11:13:46.412Z,83.21
2023-01-20T11:19:05.993Z,83.53
2023-01-20T11:24:43.700Z,83.36
2023-01-20T11:29:50.837Z,83.26
2023-01-20T11:34:53.844Z,83.07
2023-01-20T11:39:55.236Z,83.49
2023-01-20T11:45:21.221Z,82.20
2023-01-20T11:50:28.637Z,82.47
2023-01-20T11:55:30.068Z,82.71
2023-01-20T12:00:40.716Z,82.39
2023-01-20T12:05:45.042Z,82.43
2023-01-20T12:10:48.589Z,82.62
2023-01-20T12:15:56.472Z,82.90
2023-01-20T12:21:20.375Z,82.54
2023-01-20T12:26:23.395Z,82.64
2023-01-20T12:31:25.340Z,82.74
2023-01-20T12:36:44.713Z,82.39
2023-01-20T12:42:08.284Z,82.79
2023-01-20T12:47:51.775Z,83.27
2023-01-20T12:53:02.020Z,82.93
2023-01-20T12:58:29.337Z,83.29
2023-01-20T13:04:05.315Z,83.49
2023-01-20T13:09:20.557Z,82.14
2023-01-20T13:14:30.387Z,82.66
2023-01-20T13:19:38.889Z,83.26
2023-01-20T13:24:44.754Z,83.45
2023-01-20T13:29:55.673Z,82.78
2023-01-20T13:34:57.895Z,82.40
2023-01-20T13:40:00.447Z,82.94
2023-01-20T13:45:14.685Z,83.01
2023-01-20T13:50:26.163Z,82.76
2023-01-20T13:55:49.855Z,83.22
2023-01-20T14:00:54.380Z,83.54
2023-01-20T14:06:01.291Z,83.63
2023-01-20T14:11:09.328Z,82.98
2023-01-20T14:16:39.191Z,83.71
2023-01-20T14:21:42.738Z,83.20
2023-01-20T14:26:44.177Z,85.19
2023-01-20T14:31:46.277Z,85.10
2023-01-20T14:36:48.261Z,85.73
2023-01-20T14:41:55.073Z,85.87
2023-01-20T14:46:59.436Z,85.67
2023-01-20T14:52:01.693Z,85.90
2023-01-20T14:57:21.651Z,85.63
2023-01-20T15:02:29.358Z,85.77
2023-01-20T15:07:30.799Z,85.47
2023-01-20T15:12:35.580Z,84.58
2023-01-20T15:17:37.119Z,83.59
2023-01-20T15:22:42.262Z,82.75
2023-01-20T15:27:43.678Z,82.23
2023-01-20T15:32:47.219Z,80.97
2023-01-20T15:37:49.611Z,80.98
2023-01-20T15:42:51.605Z,80.87
2023-01-20T15:47:53.825Z,80.38
2023-01-20T15:52:55.253Z,79.69
2023-01-20T15:57:56.678Z,80.80
2023-01-20T16:02:58.143Z,80.39
2023-01-20T16:07:59.612Z,80.57
2023-01-20T16:13:01.058Z,82.01
2023-01-20T16:18:02.490Z,82.80
2023-01-20T16:23:03.939Z,84.12
2023-01-20T16:28:21.317Z,84.47
2023-01-20T16:33:24.889Z,84.93
2023-01-20T16:38:26.370Z,85.85
2023-01-20T16:43:27.859Z,86.10
2023-01-20T16:48:29.292Z,86.07
2023-01-20T16:53:30.848Z,86.07
2023-01-20T16:58:32.289Z,86.95
2023-01-20T17:03:33.716Z,86.56
2023-01-20T17:08:35.142Z,86.71
2023-01-20T17:13:38.941Z,85.05
2023-01-20T17:18:44.631Z,84.82
2023-01-20T17:23:55.539Z,85.42
2023-01-20T17:28:59.895Z,84.99
2023-01-20T17:34:01.316Z,84.14
2023-01-20T17:39:04.070Z,84.02
2023-01-20T17:44:06.298Z,84.12
2023-01-20T17:49:08.121Z,83.71
2023-01-20T17:54:09.597Z,84.00
2023-01-20T17:59:11.029Z,84.23
2023-01-20T18:04:12.451Z,84.11
2023-01-20T18:09:14.338Z,84.38
2023-01-20T18:14:15.759Z,83.71
2023-01-20T18:19:17.192Z,83.53
2023-01-20T18:24:18.648Z,82.73
2023-01-20T18:29:20.085Z,83.01
2023-01-20T18:34:22.014Z,83.68
2023-01-20T18:39:24.806Z,83.20
2023-01-20T18:44:26.799Z,83.84
2023-01-20T18:49:28.916Z,83.52
2023-01-20T18:54:32.788Z,83.81
2023-01-20T18:59:34.462Z,83.21
2023-01-20T19:04:36.495Z,83.24
2023-01-20T19:09:37.908Z,84.09
2023-01-20T19:14:39.357Z,83.86
2023-01-20T19:19:45.941Z,83.90
2023-01-20T19:24:47.360Z,83.63
2023-01-20T19:29:48.794Z,83.87
2023-01-20T19:34:50.224Z,83.98
2023-01-20T19:39:51.645Z,84.47
2023-01-20T19:44:53.083Z,84.70
2023-01-20T19:49:54.516Z,84.64
2023-01-20T19:54:55.997Z,84.43
2023-01-20T19:59:57.424Z,83.96
2023-01-20T20:04:58.950Z,84.43
2023-01-20T20:10:00.371Z,84.40
2023-01-20T20:15:01.805Z,84.42
2023-01-20T20:20:03.328Z,84.51
2023-01-20T20:25:05.826Z,85.09
2023-01-20T20:30:08.498Z,84.82
2023-01-20T20:35:09.925Z,85.39
2023-01-20T20:40:11.994Z,85.32
2023-01-20T20:45:13.559Z,85.02
2023-01-20T20:50:15.362Z,85.16
2023-01-20T20:55:17.155Z,85.67
2023-01-20T21:00:23.255Z,86.13
2023-01-20T21:05:24.695Z,85.90
2023-01-20T21:10:26.302Z,86.36
2023-01-20T21:15:27.808Z,86.39
2023-01-20T21:20:31.160Z,86.25
2023-01-20T21:25:32.893Z,86.06
2023-01-20T21:30:34.352Z,85.35
2023-01-20T21:35:39.166Z,85.11
2023-01-20T21:40:41.380Z,85.14
2023-01-20T21:45:42.804Z,85.89
2023-01-20T21:51:02.880Z,85.38
2023-01-20T21:56:04.455Z,85.62
2023-01-20T22:01:05.957Z,84.72
2023-01-20T22:06:07.441Z,85.25
2023-01-20T22:11:10.121Z,84.61
2023-01-20T22:16:11.825Z,84.29
2023-01-20T22:21:13.358Z,84.42
2023-01-20T22:26:14.896Z,85.14
2023-01-20T22:31:21.678Z,84.74
2023-01-20T22:36:24.790Z,85.30
2023-01-20T22:41:26.267Z,85.09
2023-01-20T22:46:29.372Z,85.27
2023-01-20T22:51:31.376Z,85.44
2023-01-20T22:56:32.852Z,85.53
2023-01-20T23:01:35.701Z,86.23
2023-01-20T23:06:37.229Z,86.28
2023-01-20T23:11:40.003Z,86.01
2023-01-20T23:16:43.098Z,85.68
2023-01-20T23:21:44.561Z,86.36
2023-01-20T23:26:45.999Z,85.69
2023-01-20T23:31:47.442Z,85.70
2023-01-20T23:36:48.907Z,85.14
2023-01-20T23:41:50.928Z,86.46
2023-01-20T23:46:52.351Z,85.97
2023-01-20T23:51:53.782Z,86.60
2023-01-20T23:56:55.227Z,85.93
